createdAt,value
2023-03-26T00:01:27.993Z,69.31
2023-03-26T00:03:57.959Z,69.37
2023-03-26T00:06:28.827Z,69.21
2023-03-26T00:08:58.354Z,69.65
2023-03-26T00:11:28.200Z,69.72
2023-03-26T00:13:59.529Z,69.04
2023-03-26T00:16:30.674Z,69.32
2023-03-26T00:19:00.717Z,70.08
2023-03-26T00:21:30.226Z,69.28
2023-03-26T00:24:00.092Z,70.36
2023-03-26T00:26:29.625Z,71.55
2023-03-26T00:28:58.273Z,70.36
2023-03-26T00:31:26.693Z,69.94
2023-03-26T00:33:55.588Z,68.09
2023-03-26T00:36:25.752Z,68.42
2023-03-26T00:38:54.332Z,69.92
2023-03-26T00:41:25.604Z,70.36
2023-03-26T00:43:56.572Z,70.96
2023-03-26T00:46:26.090Z,70.46
2023-03-26T00:48:53.700Z,70.55
2023-03-26T00:51:21.715Z,70.54
2023-03-26T00:53:50.539Z,70.46
2023-03-26T00:56:18.707Z,71.26
2023-03-26T00:58:47.610Z,71.12
2023-03-26T01:01:18.983Z,71.27
2023-03-26T01:04:04.903Z,71.38
2023-03-26T01:06:37.937Z,69.62
2023-03-26T01:09:13.839Z,70.24
2023-03-26T01:11:41.984Z,71.54
2023-03-26T01:14:12.378Z,71.77
2023-03-26T01:17:01.700Z,71.18
2023-03-26T01:19:44.921Z,68.97
2023-03-26T01:22:21.022Z,70.48
2023-03-26T01:24:53.867Z,69.24
2023-03-26T01:27:43.160Z,70.89
2023-03-26T01:30:22.280Z,69.38
2023-03-26T01:33:07.260Z,70.36
2023-03-26T01:35:46.198Z,71.49
2023-03-26T01:38:46.772Z,72.86
2023-03-26T01:41:41.128Z,73.44
2023-03-26T01:44:29.571Z,72.01
2023-03-26T01:46:59.863Z,72.92
2023-03-26T01:49:28.819Z,72.20
2023-03-26T01:51:58.085Z,72.08
2023-03-26T01:54:28.642Z,71.84
2023-03-26T01:57:19.309Z,71.86
2023-03-26T01:59:59.151Z,72.15
2023-03-26T02:02:42.613Z,71.92
2023-03-26T02:05:20.164Z,71.48
2023-03-26T02:08:21.068Z,71.39
2023-03-26T02:10:52.719Z,71.01
2023-03-26T02:13:22.193Z,69.60
2023-03-26T02:16:00.683Z,70.24
2023-03-26T02:18:39.172Z,69.04
2023-03-26T02:21:12.245Z,64.28
2023-03-26T02:23:46.889Z,62.67
2023-03-26T02:26:17.031Z,63.24
2023-03-26T02:28:46.720Z,62.18
2023-03-26T02:31:17.125Z,62.24
2023-03-26T02:33:47.667Z,61.83
2023-03-26T02:36:18.514Z,61.74
2023-03-26T02:38:46.697Z,62.16
2023-03-26T02:41:15.144Z,61.43
2023-03-26T02:43:51.108Z,61.85
2023-03-26T02:46:20.532Z,61.99
2023-03-26T02:48:49.908Z,62.38
2023-03-26T02:51:18.465Z,62.93
2023-03-26T02:53:47.639Z,63.04
2023-03-26T02:56:16.398Z,62.95
2023-03-26T02:58:44.476Z,64.52
2023-03-26T03:01:13.666Z,65.00
2023-03-26T03:03:41.576Z,65.77
2023-03-26T03:06:17.220Z,64.81
2023-03-26T03:08:48.905Z,64.55
2023-03-26T03:11:23.547Z,63.90
2023-03-26T03:13:51.776Z,63.83
2023-03-26T03:16:20.156Z,63.42
2023-03-26T03:18:54.571Z,65.15
2023-03-26T03:21:24.314Z,63.02
2023-03-26T03:23:51.877Z,62.13
2023-03-26T03:26:21.836Z,61.84
2023-03-26T03:28:51.467Z,60.77
2023-03-26T03:31:18.921Z,61.64
2023-03-26T03:33:46.637Z,61.88
2023-03-26T03:36:20.452Z,62.20
2023-03-26T03:38:51.347Z,60.66
2023-03-26T03:41:19.372Z,61.46
2023-03-26T03:43:47.954Z,59.72
2023-03-26T03:46:15.839Z,61.57
2023-03-26T03:48:48.313Z,61.64
2023-03-26T03:51:18.312Z,61.16
2023-03-26T03:53:47.372Z,63.21
2023-03-26T03:56:17.562Z,62.96
2023-03-26T03:58:47.370Z,61.37
2023-03-26T04:01:17.000Z,64.73
2023-03-26T04:03:46.498Z,64.81
2023-03-26T04:06:19.241Z,65.21
2023-03-26T04:08:53.816Z,64.58
2023-03-26T04:11:21.769Z,64.10
2023-03-26T04:13:51.533Z,64.38
2023-03-26T04:16:19.730Z,64.14
2023-03-26T04:18:48.722Z,65.12
2023-03-26T04:21:17.028Z,66.19
2023-03-26T04:23:45.608Z,73.40
2023-03-26T04:26:16.783Z,73.47
2023-03-26T04:28:49.435Z,75.68
2023-03-26T04:31:19.131Z,75.94
2023-03-26T04:33:47.771Z,77.81
2023-03-26T04:36:16.889Z,79.79
2023-03-26T04:38:46.512Z,80.38
2023-03-26T04:41:14.745Z,79.50
2023-03-26T04:43:47.332Z,76.91
2023-03-26T04:46:18.380Z,77.51
2023-03-26T04:48:51.356Z,78.18
2023-03-26T04:51:22.003Z,79.45
2023-03-26T04:53:57.880Z,78.66
2023-03-26T04:56:35.006Z,78.99
2023-03-26T04:59:04.156Z,78.41
2023-03-26T05:01:33.213Z,76.38
2023-03-26T05:04:00.686Z,72.88
2023-03-26T05:06:30.420Z,73.84
2023-03-26T05:08:58.853Z,74.21
2023-03-26T05:11:28.890Z,74.87
2023-03-26T05:13:57.523Z,72.61
2023-03-26T05:16:25.343Z,72.50
2023-03-26T05:18:54.093Z,68.64
2023-03-26T05:21:22.493Z,71.11
2023-03-26T05:23:50.370Z,73.28
2023-03-26T05:26:18.640Z,75.92
2023-03-26T05:28:46.212Z,76.03
2023-03-26T05:31:16.881Z,76.74
2023-03-26T05:33:47.530Z,75.51
2023-03-26T05:36:17.275Z,76.47
2023-03-26T05:38:49.667Z,76.93
2023-03-26T05:41:18.317Z,76.24
2023-03-26T05:43:47.261Z,75.31
2023-03-26T05:46:15.460Z,74.81
2023-03-26T05:48:43.584Z,74.18
2023-03-26T05:51:12.363Z,73.13
2023-03-26T05:53:41.771Z,71.99
2023-03-26T05:56:11.841Z,72.10
2023-03-26T05:58:45.279Z,71.49
2023-03-26T06:01:21.028Z,71.76
2023-03-26T06:03:52.487Z,73.26
2023-03-26T06:06:20.851Z,72.28
2023-03-26T06:09:01.409Z,69.15
2023-03-26T06:11:31.988Z,68.54
2023-03-26T06:14:01.048Z,66.99
2023-03-26T06:16:28.768Z,66.01
2023-03-26T06:18:57.576Z,66.06
2023-03-26T06:21:27.240Z,66.04
2023-03-26T06:23:55.936Z,65.19
2023-03-26T06:26:26.588Z,62.31
2023-03-26T06:28:54.271Z,60.33
2023-03-26T06:31:22.097Z,60.72
2023-03-26T06:33:49.999Z,62.62
2023-03-26T06:36:17.458Z,62.36
2023-03-26T06:38:48.832Z,59.50
2023-03-26T06:41:17.058Z,60.70
2023-03-26T06:43:44.738Z,61.45
2023-03-26T06:46:13.453Z,58.77
2023-03-26T06:48:43.624Z,59.17
2023-03-26T06:51:12.786Z,57.19
2023-03-26T06:53:41.935Z,60.01
2023-03-26T06:56:10.053Z,59.84
2023-03-26T06:58:38.097Z,58.73
2023-03-26T07:01:18.072Z,58.69
2023-03-26T07:03:59.768Z,59.56
2023-03-26T07:06:53.892Z,60.23
2023-03-26T07:09:32.446Z,58.69
2023-03-26T07:12:01.362Z,57.98
2023-03-26T07:14:32.593Z,57.57
2023-03-26T07:17:01.256Z,57.40
2023-03-26T07:19:29.204Z,57.37
2023-03-26T07:21:56.914Z,57.04
2023-03-26T07:24:26.593Z,58.14
2023-03-26T07:26:58.000Z,57.89
2023-03-26T07:29:40.183Z,58.54
2023-03-26T07:32:26.006Z,57.66
2023-03-26T07:35:12.412Z,56.70
2023-03-26T07:37:55.868Z,57.87
2023-03-26T07:40:50.221Z,57.17
2023-03-26T07:43:39.456Z,59.33
2023-03-26T07:46:11.806Z,57.88
2023-03-26T07:49:00.104Z,58.40
2023-03-26T07:51:28.963Z,59.18
2023-03-26T07:53:57.069Z,58.10
2023-03-26T07:56:52.242Z,58.62
2023-03-26T07:59:30.565Z,57.50
2023-03-26T08:02:13.356Z,57.92
2023-03-26T08:04:56.100Z,58.59
2023-03-26T08:07:39.660Z,57.61
2023-03-26T08:10:17.738Z,57.62
2023-03-26T08:13:00.644Z,56.64
2023-03-26T08:15:37.975Z,56.68
2023-03-26T08:18:27.629Z,56.21
2023-03-26T08:21:25.550Z,54.57
2023-03-26T08:24:04.873Z,53.72
2023-03-26T08:26:41.404Z,54.19
2023-03-26T08:29:21.421Z,53.50
2023-03-26T08:31:51.027Z,51.99
2023-03-26T08:34:18.649Z,51.93
2023-03-26T08:36:46.167Z,50.83
2023-03-26T08:39:14.275Z,51.31
2023-03-26T08:42:06.974Z,50.07
2023-03-26T08:44:49.651Z,50.76
2023-03-26T08:47:35.543Z,50.36
2023-03-26T08:50:40.613Z,50.30
2023-03-26T08:53:32.791Z,49.05
2023-03-26T08:56:23.034Z,48.02
2023-03-26T08:58:53.454Z,47.46
2023-03-26T09:01:58.312Z,47.95
2023-03-26T09:04:57.575Z,49.87
2023-03-26T09:07:28.200Z,50.38
2023-03-26T09:10:09.147Z,51.21
2023-03-26T09:12:59.986Z,49.48
2023-03-26T09:16:01.330Z,49.08
2023-03-26T09:18:31.885Z,49.30
2023-03-26T09:21:08.479Z,48.12
2023-03-26T09:24:01.083Z,46.81
2023-03-26T09:26:28.470Z,46.13
2023-03-26T09:29:26.818Z,48.48
2023-03-26T09:32:06.568Z,48.59
2023-03-26T09:34:44.500Z,49.48
2023-03-26T09:37:56.222Z,48.86
2023-03-26T09:40:32.521Z,47.84
2023-03-26T09:43:38.436Z,49.63
2023-03-26T09:46:24.923Z,48.60
2023-03-26T09:49:28.120Z,48.03
2023-03-26T09:52:03.472Z,49.22
2023-03-26T09:54:44.731Z,49.61
2023-03-26T09:57:45.365Z,50.99
2023-03-26T10:00:18.964Z,49.81
2023-03-26T10:03:01.814Z,49.33
2023-03-26T10:06:11.967Z,47.61
2023-03-26T10:09:03.118Z,48.84
2023-03-26T10:11:52.614Z,49.06
2023-03-26T10:14:42.181Z,50.21
2023-03-26T10:17:28.802Z,52.05
2023-03-26T10:20:13.102Z,57.51
2023-03-26T10:23:01.181Z,58.74
2023-03-26T10:25:54.782Z,63.38
2023-03-26T10:28:24.937Z,59.07
2023-03-26T10:31:21.250Z,62.49
2023-03-26T10:33:52.316Z,63.29
2023-03-26T10:36:39.893Z,62.56
2023-03-26T10:39:37.184Z,62.79
2023-03-26T10:42:25.768Z,58.80
2023-03-26T10:45:14.826Z,56.76
2023-03-26T10:48:19.448Z,54.75
2023-03-26T10:50:50.228Z,55.22
2023-03-26T10:53:36.220Z,53.08
2023-03-26T10:56:27.757Z,51.53
2023-03-26T10:58:56.975Z,52.08
2023-03-26T11:01:38.156Z,51.96
2023-03-26T11:04:34.856Z,52.38
2023-03-26T11:07:05.286Z,52.70
2023-03-26T11:10:00.598Z,54.48
2023-03-26T11:12:45.421Z,54.68
2023-03-26T11:15:39.162Z,56.16
2023-03-26T11:18:28.908Z,56.13
2023-03-26T11:21:18.904Z,58.39
2023-03-26T11:24:04.903Z,58.58
2023-03-26T11:26:55.947Z,56.10
2023-03-26T11:32:25.764Z,58.55
2023-03-26T11:34:36.778Z,57.23
2023-03-26T11:34:56.436Z,58.67
2023-03-26T11:37:31.134Z,54.29
2023-03-26T11:40:02.161Z,51.54
2023-03-26T11:42:37.794Z,47.38
2023-03-26T11:45:07.225Z,47.90
2023-03-26T11:47:48.563Z,48.19
2023-03-26T11:50:27.211Z,48.11
2023-03-26T11:52:59.733Z,45.65
2023-03-26T11:55:27.747Z,46.50
2023-03-26T11:57:58.479Z,43.34
2023-03-26T12:00:27.725Z,43.84
2023-03-26T12:02:59.735Z,43.53
2023-03-26T12:05:33.626Z,43.00
2023-03-26T12:08:04.342Z,41.08
2023-03-26T12:10:43.157Z,41.80
2023-03-26T12:13:37.800Z,39.06
2023-03-26T12:16:17.589Z,38.72
2023-03-26T12:18:46.635Z,36.70
2023-03-26T12:21:19.399Z,36.46
2023-03-26T12:24:01.986Z,35.65
2023-03-26T12:26:41.367Z,34.42
2023-03-26T12:29:11.711Z,33.01
2023-03-26T12:31:54.828Z,35.53
2023-03-26T12:34:29.470Z,35.18
2023-03-26T12:37:00.966Z,34.34
2023-03-26T12:40:06.254Z,34.57
2023-03-26T12:44:48.737Z,34.38
2023-03-26T12:45:23.829Z,34.99
2023-03-26T12:47:57.980Z,34.93
2023-03-26T12:51:05.109Z,34.26
2023-03-26T12:53:45.529Z,35.99
2023-03-26T12:56:27.376Z,36.14
2023-03-26T12:59:01.101Z,36.70
2023-03-26T13:01:53.990Z,35.28
2023-03-26T13:04:58.491Z,36.36
2023-03-26T13:07:42.032Z,35.95
2023-03-26T13:10:18.397Z,35.67
2023-03-26T13:12:54.057Z,35.37
2023-03-26T13:15:25.725Z,36.61
2023-03-26T13:18:23.480Z,37.24
2023-03-26T13:20:56.015Z,36.33
2023-03-26T13:23:45.362Z,35.58
2023-03-26T13:26:28.126Z,33.73
2023-03-26T13:29:05.157Z,33.91
2023-03-26T13:31:54.649Z,34.85
2023-03-26T13:34:54.533Z,33.94
2023-03-26T13:37:31.194Z,35.36
2023-03-26T13:40:34.871Z,35.37
2023-03-26T13:43:21.267Z,35.78
2023-03-26T13:45:56.733Z,35.71
2023-03-26T13:48:28.701Z,35.37
2023-03-26T13:51:02.808Z,35.33
2023-03-26T13:54:15.765Z,34.25
2023-03-26T13:56:58.671Z,34.93
2023-03-26T13:59:34.033Z,35.34
2023-03-26T14:02:07.953Z,35.83
2023-03-26T14:04:54.597Z,34.43
2023-03-26T14:07:32.184Z,32.61
2023-03-26T14:10:09.034Z,32.92
2023-03-26T14:12:51.561Z,32.93
2023-03-26T14:15:27.378Z,32.44
2023-03-26T14:18:18.656Z,32.27
2023-03-26T14:20:57.143Z,32.38
2023-03-26T14:23:48.398Z,32.91
2023-03-26T14:26:49.869Z,32.31
2023-03-26T14:29:36.002Z,32.51
2023-03-26T14:32:24.295Z,32.62
2023-03-26T14:34:59.021Z,33.45
2023-03-26T14:37:47.182Z,32.44
2023-03-26T14:40:29.935Z,32.20
2023-03-26T14:43:29.446Z,30.56
2023-03-26T14:46:04.399Z,31.87
2023-03-26T14:48:33.354Z,30.07
2023-03-26T14:51:35.151Z,30.25
2023-03-26T14:54:12.158Z,29.49
2023-03-26T14:56:52.598Z,29.11
2023-03-26T14:59:52.939Z,30.25
2023-03-26T15:02:42.644Z,31.85
2023-03-26T15:05:24.719Z,30.79
2023-03-26T15:08:11.390Z,30.54
2023-03-26T15:10:45.478Z,30.51
2023-03-26T15:13:25.393Z,30.94
2023-03-26T15:16:00.927Z,31.17
2023-03-26T15:18:51.154Z,31.39
2023-03-26T15:21:52.878Z,31.81
2023-03-26T15:24:27.609Z,31.33
2023-03-26T15:27:32.036Z,32.03
2023-03-26T15:30:34.421Z,31.61
2023-03-26T15:33:35.057Z,31.23
2023-03-26T15:36:31.121Z,32.22
2023-03-26T15:39:30.058Z,31.75
2023-03-26T15:42:04.351Z,32.34
2023-03-26T15:44:55.025Z,32.01
2023-03-26T15:47:51.161Z,33.33
2023-03-26T15:50:24.561Z,32.85
2023-03-26T15:53:18.681Z,32.90
2023-03-26T15:56:08.306Z,32.72
2023-03-26T15:58:48.580Z,33.75
2023-03-26T16:01:28.299Z,33.65
2023-03-26T16:04:19.107Z,34.50
2023-03-26T16:07:29.652Z,33.49
2023-03-26T16:10:20.321Z,33.75
2023-03-26T16:12:57.270Z,35.20
2023-03-26T16:15:28.517Z,34.78
2023-03-26T16:18:12.470Z,35.14
2023-03-26T16:20:54.775Z,35.07
2023-03-26T16:23:47.721Z,34.91
2023-03-26T16:26:40.625Z,34.71
2023-03-26T16:29:20.170Z,35.00
2023-03-26T16:32:16.737Z,35.66
2023-03-26T16:34:54.174Z,35.69
2023-03-26T16:37:43.990Z,35.34
2023-03-26T16:40:18.032Z,35.88
2023-03-26T16:43:34.577Z,35.61
2023-03-26T16:46:11.981Z,36.54
2023-03-26T16:48:47.476Z,36.76
2023-03-26T16:51:48.123Z,36.86
2023-03-26T16:54:26.211Z,37.30
2023-03-26T16:57:03.040Z,37.61
2023-03-26T16:59:32.490Z,37.63
2023-03-26T17:02:14.194Z,37.39
2023-03-26T17:04:47.132Z,37.44
2023-03-26T17:07:24.286Z,37.45
2023-03-26T17:10:16.267Z,38.03
2023-03-26T17:12:57.179Z,38.31
2023-03-26T17:15:35.056Z,38.26
2023-03-26T17:18:32.431Z,37.86
2023-03-26T17:21:25.047Z,36.93
2023-03-26T17:24:15.340Z,37.47
2023-03-26T17:27:13.641Z,37.24
2023-03-26T17:30:21.504Z,37.53
2023-03-26T17:32:56.728Z,38.02
2023-03-26T17:35:39.843Z,38.56
2023-03-26T17:38:36.181Z,38.84
2023-03-26T17:41:05.934Z,39.35
2023-03-26T17:43:52.973Z,39.42
2023-03-26T17:46:41.729Z,38.99
2023-03-26T17:49:20.252Z,38.80
2023-03-26T17:51:58.272Z,39.26
2023-03-26T17:54:36.047Z,39.86
2023-03-26T17:57:10.789Z,39.32
2023-03-26T17:59:41.337Z,39.39
2023-03-26T18:02:19.510Z,39.20
2023-03-26T18:04:51.820Z,40.49
2023-03-26T18:07:42.504Z,40.71
2023-03-26T18:10:28.098Z,41.30
2023-03-26T18:13:17.941Z,40.87
2023-03-26T18:15:50.471Z,40.57
2023-03-26T18:18:33.210Z,40.78
2023-03-26T18:21:07.714Z,40.75
2023-03-26T18:23:41.053Z,40.50
2023-03-26T18:26:35.503Z,39.75
2023-03-26T18:29:28.082Z,39.80
2023-03-26T18:32:22.331Z,39.73
2023-03-26T18:35:02.824Z,39.87
2023-03-26T18:37:35.484Z,38.67
2023-03-26T18:40:24.931Z,39.45
2023-03-26T18:42:58.294Z,39.52
2023-03-26T18:45:34.187Z,39.53
2023-03-26T18:48:19.287Z,39.42
2023-03-26T18:50:54.280Z,39.89
2023-03-26T18:53:26.985Z,40.07
2023-03-26T18:55:56.794Z,40.94
2023-03-26T18:58:41.941Z,40.90
2023-03-26T19:01:25.514Z,40.62
2023-03-26T19:03:56.177Z,40.25
2023-03-26T19:06:26.625Z,41.09
2023-03-26T19:08:58.831Z,40.90
2023-03-26T19:11:39.240Z,41.40
2023-03-26T19:14:23.750Z,41.88
2023-03-26T19:17:07.919Z,41.75
2023-03-26T19:19:38.663Z,42.06
2023-03-26T19:22:09.926Z,41.65
2023-03-26T19:24:41.463Z,42.44
2023-03-26T19:27:11.376Z,41.25
2023-03-26T19:29:44.393Z,40.97
2023-03-26T19:32:33.621Z,41.41
2023-03-26T19:35:05.065Z,41.23
2023-03-26T19:37:33.665Z,40.82
2023-03-26T19:40:22.844Z,41.92
2023-03-26T19:42:51.828Z,41.40
2023-03-26T19:45:24.231Z,41.04
2023-03-26T19:48:00.439Z,41.97
2023-03-26T19:50:37.629Z,41.88
2023-03-26T19:53:17.248Z,42.19
2023-03-26T19:56:00.843Z,43.07
2023-03-26T19:58:30.534Z,43.03
2023-03-26T20:01:02.377Z,42.76
2023-03-26T20:03:44.126Z,42.94
2023-03-26T20:06:14.853Z,42.21
2023-03-26T20:08:44.646Z,42.77
2023-03-26T20:11:21.919Z,43.26
2023-03-26T20:13:52.960Z,43.91
2023-03-26T20:16:31.971Z,44.01
2023-03-26T20:19:04.916Z,44.00
2023-03-26T20:21:38.548Z,43.54
2023-03-26T20:24:16.512Z,43.35
2023-03-26T20:26:45.612Z,42.75
2023-03-26T20:29:15.310Z,44.19
2023-03-26T20:31:48.129Z,44.11
2023-03-26T20:34:23.082Z,45.01
2023-03-26T20:37:01.347Z,44.24
2023-03-26T20:39:30.434Z,44.93
2023-03-26T20:41:58.468Z,44.43
2023-03-26T20:44:28.114Z,45.05
2023-03-26T20:46:57.372Z,43.70
2023-03-26T20:49:29.311Z,43.75
2023-03-26T20:51:57.665Z,45.15
2023-03-26T20:54:26.700Z,44.63
2023-03-26T20:56:54.814Z,44.51
2023-03-26T20:59:26.379Z,43.65
2023-03-26T21:01:57.580Z,43.72
2023-03-26T21:04:26.879Z,44.14
2023-03-26T21:07:00.425Z,44.04
2023-03-26T21:09:35.591Z,44.00
2023-03-26T21:12:09.748Z,45.55
2023-03-26T21:14:41.339Z,48.48
2023-03-26T21:17:21.110Z,51.46
2023-03-26T21:19:49.666Z,51.95
2023-03-26T21:22:29.355Z,53.45
2023-03-26T21:25:19.736Z,55.07
2023-03-26T21:28:11.563Z,60.87
2023-03-26T21:30:39.995Z,64.93
2023-03-26T21:33:07.563Z,63.40
2023-03-26T21:35:35.553Z,62.64
2023-03-26T21:38:04.758Z,61.38
2023-03-26T21:40:33.102Z,60.27
2023-03-26T21:43:01.117Z,59.29
2023-03-26T21:45:29.177Z,59.97
2023-03-26T21:47:56.947Z,60.49
2023-03-26T21:50:24.848Z,59.14
2023-03-26T21:52:52.923Z,61.32
2023-03-26T21:55:22.608Z,61.77
2023-03-26T21:57:59.824Z,63.13
2023-03-26T22:00:41.156Z,64.62
2023-03-26T22:03:26.541Z,67.29
2023-03-26T22:06:16.226Z,68.19
2023-03-26T22:08:44.064Z,68.26
2023-03-26T22:11:12.275Z,67.78
2023-03-26T22:13:39.765Z,70.27
2023-03-26T22:16:09.904Z,70.64
2023-03-26T22:18:37.824Z,73.71
2023-03-26T22:21:05.966Z,76.59
2023-03-26T22:23:38.271Z,79.98
2023-03-26T22:26:06.223Z,83.16
2023-03-26T22:28:34.330Z,86.63
2023-03-26T22:31:09.011Z,89.35
2023-03-26T22:33:39.994Z,90.09
2023-03-26T22:36:22.367Z,90.99
2023-03-26T22:38:54.790Z,91.18
2023-03-26T22:41:22.968Z,90.63
2023-03-26T22:43:53.137Z,90.33
2023-03-26T22:46:21.293Z,89.52
2023-03-26T22:48:48.962Z,90.21
2023-03-26T22:51:17.361Z,90.91
2023-03-26T22:53:45.079Z,92.15
2023-03-26T22:56:14.303Z,92.54
2023-03-26T22:58:42.381Z,93.18
2023-03-26T23:01:19.747Z,93.81
2023-03-26T23:03:47.896Z,92.62
2023-03-26T23:06:16.127Z,92.25
2023-03-26T23:08:43.584Z,94.16
2023-03-26T23:11:13.203Z,93.94
2023-03-26T23:13:41.362Z,93.51
2023-03-26T23:16:10.158Z,92.36
2023-03-26T23:18:38.750Z,91.55
2023-03-26T23:21:12.127Z,93.29
2023-03-26T23:23:40.108Z,91.65
2023-03-26T23:26:07.520Z,92.46
2023-03-26T23:28:35.760Z,91.72
2023-03-26T23:31:06.356Z,88.66
2023-03-26T23:33:36.488Z,86.83
2023-03-26T23:36:09.036Z,87.03
2023-03-26T23:38:43.422Z,84.51
2023-03-26T23:41:16.169Z,82.53
2023-03-26T23:43:54.331Z,81.33
2023-03-26T23:46:33.097Z,81.72
2023-03-26T23:49:03.448Z,79.55
2023-03-26T23:51:31.948Z,80.44
2023-03-26T23:54:00.489Z,78.33
2023-03-26T23:56:29.832Z,77.09
2023-03-26T23:58:58.387Z,77.13
